createdAt,value
2023-04-14T00:01:01.531Z,101351.06
2023-04-14T00:03:31.702Z,101347.44
2023-04-14T00:06:02.325Z,101344.63
2023-04-14T00:08:32.067Z,101341.00
2023-04-14T00:11:02.190Z,101352.22
2023-04-14T00:13:33.894Z,101347.44
2023-04-14T00:16:04.062Z,101353.38
2023-04-14T00:18:34.203Z,101348.59
2023-04-14T00:21:04.671Z,101352.22
2023-04-14T00:23:34.777Z,101348.59
2023-04-14T00:26:04.950Z,101340.19
2023-04-14T00:28:36.382Z,101338.22
2023-04-14T00:31:07.022Z,101330.97
2023-04-14T00:33:37.219Z,101332.94
2023-04-14T00:36:07.592Z,101330.13
2023-04-14T00:38:37.673Z,101335.72
2023-04-14T00:41:08.097Z,101336.88
2023-04-14T00:43:40.217Z,101328.47
2023-04-14T00:46:10.712Z,101339.69
2023-04-14T00:48:40.723Z,101336.88
2023-04-14T00:51:12.407Z,101330.47
2023-04-14T00:53:43.389Z,101329.63
2023-04-14T00:56:13.308Z,101324.38
2023-04-14T00:58:45.484Z,101326.38
2023-04-14T01:01:18.950Z,101333.13
2023-04-14T01:03:49.383Z,101325.88
2023-04-14T01:06:19.641Z,101333.44
2023-04-14T01:08:50.894Z,101338.25
2023-04-14T01:11:40.875Z,101345.00
2023-04-14T01:14:24.830Z,101345.34
2023-04-14T01:17:01.800Z,101349.31
2023-04-14T01:19:59.807Z,101356.88
2023-04-14T01:22:35.548Z,101353.59
2023-04-14T01:26:23.074Z,101357.06
2023-04-14T01:29:38.394Z,101360.53
2023-04-14T01:32:16.702Z,101365.19
2023-04-14T01:34:54.177Z,101356.28
2023-04-14T01:37:34.409Z,101365.00
2023-04-14T01:40:11.945Z,101364.53
2023-04-14T01:42:49.292Z,101362.88
2023-04-14T01:45:27.056Z,101371.59
2023-04-14T01:48:00.936Z,101369.50
2023-04-14T01:50:34.506Z,101377.41
2023-04-14T01:53:06.914Z,101382.50
2023-04-14T01:55:39.294Z,101385.66
2023-04-14T01:58:11.950Z,101392.41
2023-04-14T02:00:45.167Z,101393.56
2023-04-14T02:03:21.080Z,101387.97
2023-04-14T02:05:54.897Z,101390.28
2023-04-14T02:08:27.413Z,101376.59
2023-04-14T02:11:00.230Z,101382.53
2023-04-14T02:13:33.153Z,101382.06
2023-04-14T02:16:05.680Z,101383.22
2023-04-14T02:18:41.287Z,101379.56
2023-04-14T02:21:14.332Z,101392.25
2023-04-14T02:23:44.736Z,101388.97
2023-04-14T02:26:18.025Z,101382.88
2023-04-14T02:28:56.397Z,101384.06
2023-04-14T02:31:32.453Z,101386.31
2023-04-14T02:34:08.154Z,101383.84
2023-04-14T02:36:45.459Z,101388.28
2023-04-14T02:39:21.371Z,101376.63
2023-04-14T02:42:01.839Z,101382.53
2023-04-14T02:44:37.604Z,101383.22
2023-04-14T02:47:11.832Z,101383.53
2023-04-14T02:49:47.057Z,101386.97
2023-04-14T02:52:21.782Z,101384.84
2023-04-14T02:54:55.192Z,101378.75
2023-04-14T02:57:27.653Z,101382.56
2023-04-14T02:59:59.175Z,101389.66
2023-04-14T03:02:30.769Z,101387.50
2023-04-14T03:05:04.122Z,101394.59
2023-04-14T03:07:35.408Z,101385.69
2023-04-14T03:10:06.625Z,101388.81
2023-04-14T03:12:40.027Z,101394.41
2023-04-14T03:15:12.339Z,101392.78
2023-04-14T03:17:45.507Z,101394.72
2023-04-14T03:20:22.137Z,101400.66
2023-04-14T03:22:58.715Z,101405.41
2023-04-14T03:25:32.036Z,101406.25
2023-04-14T03:28:06.804Z,101409.06
2023-04-14T03:30:41.752Z,101416.31
2023-04-14T03:33:14.825Z,101411.53
2023-04-14T03:35:50.412Z,101404.78
2023-04-14T03:38:24.139Z,101401.63
2023-04-14T03:40:55.711Z,101400.50
2023-04-14T03:43:27.622Z,101404.94
2023-04-14T03:45:58.555Z,101407.44
2023-04-14T03:48:34.747Z,101409.88
2023-04-14T03:51:09.944Z,101419.94
2023-04-14T03:53:45.069Z,101417.47
2023-04-14T03:56:16.357Z,101417.47
2023-04-14T03:58:51.048Z,101415.81
2023-04-14T04:01:26.046Z,101418.63
2023-04-14T04:03:58.233Z,101416.97
2023-04-14T04:06:31.926Z,101416.97
2023-04-14T04:09:04.220Z,101419.78
2023-04-14T04:11:37.569Z,101424.53
2023-04-14T04:14:09.494Z,101421.72
2023-04-14T04:16:46.004Z,101422.56
2023-04-14T04:19:17.521Z,101416.13
2023-04-14T04:21:54.587Z,101412.53
2023-04-14T04:24:29.855Z,101418.94
2023-04-14T04:27:01.718Z,101424.53
2023-04-14T04:29:32.630Z,101433.44
2023-04-14T04:32:03.448Z,101431.47
2023-04-14T04:34:35.400Z,101435.88
2023-04-14T04:37:09.144Z,101427.19
2023-04-14T04:39:39.434Z,101433.28
2023-04-14T04:42:10.348Z,101434.59
2023-04-14T04:44:40.756Z,101427.50
2023-04-14T04:47:12.572Z,101431.31
2023-04-14T04:49:42.760Z,101436.56
2023-04-14T04:52:14.832Z,101440.34
2023-04-14T04:54:45.717Z,101436.56
2023-04-14T04:57:16.419Z,101444.28
2023-04-14T04:59:46.802Z,101447.78
2023-04-14T05:02:19.575Z,101442.03
2023-04-14T05:04:49.946Z,101434.59
2023-04-14T05:07:22.541Z,101438.38
2023-04-14T05:09:51.997Z,101436.56
2023-04-14T05:12:22.873Z,101437.53
2023-04-14T05:14:53.043Z,101439.03
2023-04-14T05:17:23.615Z,101436.38
2023-04-14T05:19:53.629Z,101448.25
2023-04-14T05:22:25.220Z,101444.91
2023-04-14T05:24:54.845Z,101449.53
2023-04-14T05:27:24.530Z,101447.34
2023-04-14T05:29:55.880Z,101446.84
2023-04-14T05:32:29.195Z,101451.94
2023-04-14T05:35:00.057Z,101450.94
2023-04-14T05:37:31.739Z,101460.84
2023-04-14T05:40:01.332Z,101458.19
2023-04-14T05:42:31.426Z,101458.84
2023-04-14T05:45:01.512Z,101459.47
2023-04-14T05:47:31.822Z,101460.56
2023-04-14T05:50:01.610Z,101459.25
2023-04-14T05:52:33.776Z,101452.28
2023-04-14T05:55:03.292Z,101449.75
2023-04-14T05:57:33.224Z,101444.75
2023-04-14T06:00:03.863Z,101450.34
2023-04-14T06:02:34.137Z,101454.25
2023-04-14T06:05:06.965Z,101444.50
2023-04-14T06:07:39.499Z,101448.41
2023-04-14T06:10:11.475Z,101447.03
2023-04-14T06:12:41.656Z,101450.97
2023-04-14T06:15:12.386Z,101453.22
2023-04-14T06:17:42.591Z,101455.94
2023-04-14T06:20:14.098Z,101461.88
2023-04-14T06:22:45.721Z,101466.59
2023-04-14T06:25:16.099Z,101457.25
2023-04-14T06:27:46.100Z,101455.56
2023-04-14T06:30:17.329Z,101462.28
2023-04-14T06:32:48.917Z,101468.16
2023-04-14T06:35:31.964Z,101458.81
2023-04-14T06:38:05.410Z,101448.66
2023-04-14T06:40:34.945Z,101460.50
2023-04-14T06:43:05.112Z,101466.03
2023-04-14T06:45:35.189Z,101460.66
2023-04-14T06:48:05.216Z,101458.09
2023-04-14T06:50:35.349Z,101462.31
2023-04-14T06:53:07.592Z,101464.59
2023-04-14T06:55:38.457Z,101470.47
2023-04-14T06:58:08.110Z,101467.91
2023-04-14T07:00:38.384Z,101462.88
2023-04-14T07:03:08.011Z,101465.13
2023-04-14T07:05:38.762Z,101461.25
2023-04-14T07:08:10.881Z,101462.28
2023-04-14T07:10:40.917Z,101463.69
2023-04-14T07:13:11.179Z,101466.25
2023-04-14T07:15:41.356Z,101462.06
2023-04-14T07:18:11.657Z,101461.00
2023-04-14T07:20:41.316Z,101462.78
2023-04-14T07:23:12.977Z,101455.25
2023-04-14T07:25:42.642Z,101472.72
2023-04-14T07:28:12.387Z,101455.94
2023-04-14T07:30:42.496Z,101463.31
2023-04-14T07:33:13.185Z,101456.63
2023-04-14T07:35:54.487Z,101448.75
2023-04-14T07:38:33.288Z,101450.97
2023-04-14T07:41:06.705Z,101444.72
2023-04-14T07:43:37.295Z,101436.84
2023-04-14T07:46:09.133Z,101436.25
2023-04-14T07:48:40.710Z,101431.97
2023-04-14T07:51:11.940Z,101442.69
2023-04-14T07:53:45.385Z,101444.91
2023-04-14T07:56:15.880Z,101443.81
2023-04-14T07:58:45.708Z,101446.03
2023-04-14T08:01:16.096Z,101445.75
2023-04-14T08:03:46.430Z,101439.03
2023-04-14T08:06:17.171Z,101443.59
2023-04-14T08:08:48.954Z,101452.59
2023-04-14T08:11:19.057Z,101444.69
2023-04-14T08:13:50.305Z,101442.44
2023-04-14T08:16:20.511Z,101443.84
2023-04-14T08:18:50.232Z,101448.38
2023-04-14T08:21:20.295Z,101452.13
2023-04-14T08:23:51.424Z,101454.72
2023-04-14T08:26:21.596Z,101451.59
2023-04-14T08:28:51.548Z,101466.25
2023-04-14T08:31:22.064Z,101462.34
2023-04-14T08:33:53.459Z,101464.06
2023-04-14T08:36:23.264Z,101467.81
2023-04-14T08:38:55.434Z,101464.28
2023-04-14T08:41:26.012Z,101466.34
2023-04-14T08:43:56.214Z,101473.72
2023-04-14T08:46:28.971Z,101479.47
2023-04-14T08:49:07.069Z,101474.28
2023-04-14T08:51:41.225Z,101472.72
2023-04-14T08:54:15.905Z,101470.00
2023-04-14T08:56:45.984Z,101458.81
2023-04-14T08:59:16.331Z,101462.50
2023-04-14T09:01:47.181Z,101459.84
2023-04-14T09:04:17.588Z,101453.44
2023-04-14T09:06:47.734Z,101454.69
2023-04-14T09:09:20.251Z,101456.78
2023-04-14T09:11:50.960Z,101449.59
2023-04-14T09:14:23.067Z,101448.41
2023-04-14T09:16:54.246Z,101453.69
2023-04-14T09:19:26.335Z,101443.22
2023-04-14T09:21:57.667Z,101444.03
2023-04-14T09:24:34.490Z,101447.66
2023-04-14T09:27:06.528Z,101442.47
2023-04-14T09:29:37.024Z,101446.94
2023-04-14T09:32:08.179Z,101438.91
2023-04-14T09:34:38.111Z,101446.19
2023-04-14T09:37:11.343Z,101442.63
2023-04-14T09:39:52.163Z,101435.81
2023-04-14T09:42:22.341Z,101436.59
2023-04-14T09:45:01.604Z,101434.25
2023-04-14T09:47:31.300Z,101422.94
2023-04-14T09:50:04.177Z,101417.72
2023-04-14T09:52:42.777Z,101418.19
2023-04-14T09:55:17.212Z,101420.63
2023-04-14T09:57:49.911Z,101420.63
2023-04-14T10:00:24.989Z,101416.63
2023-04-14T10:02:59.314Z,101412.16
2023-04-14T10:05:34.569Z,101410.16
2023-04-14T10:08:06.141Z,101408.88
2023-04-14T10:10:37.740Z,101405.69
2023-04-14T10:13:08.119Z,101404.88
2023-04-14T10:15:38.350Z,101403.69
2023-04-14T10:18:08.769Z,101390.38
2023-04-14T10:20:40.083Z,101397.28
2023-04-14T10:23:11.569Z,101403.75
2023-04-14T10:25:43.293Z,101396.91
2023-04-14T10:28:14.440Z,101401.38
2023-04-14T10:30:45.468Z,101393.34
2023-04-14T10:33:18.076Z,101383.69
2023-04-14T10:35:53.911Z,101386.97
2023-04-14T10:38:24.123Z,101380.94
2023-04-14T10:40:57.346Z,101374.09
2023-04-14T10:43:31.167Z,101368.44
2023-04-14T10:46:02.138Z,101364.78
2023-04-14T10:48:37.476Z,101352.66
2023-04-14T10:51:10.489Z,101353.47
2023-04-14T10:53:47.147Z,101355.50
2023-04-14T10:56:22.007Z,101349.00
2023-04-14T10:58:59.077Z,101343.34
2023-04-14T11:01:33.191Z,101345.00
2023-04-14T11:04:21.186Z,101341.38
2023-04-14T11:06:57.430Z,101341.38
2023-04-14T11:09:39.500Z,101343.00
2023-04-14T11:12:28.160Z,101344.19
2023-04-14T11:14:59.233Z,101339.72
2023-04-14T11:17:30.775Z,101336.91
2023-04-14T11:20:00.786Z,101343.75
2023-04-14T11:22:41.944Z,101340.09
2023-04-14T11:25:15.493Z,101335.66
2023-04-14T11:27:49.758Z,101326.72
2023-04-14T11:30:21.915Z,101331.56
2023-04-14T11:32:54.543Z,101337.22
2023-04-14T11:35:28.330Z,101327.91
2023-04-14T11:38:00.246Z,101329.53
2023-04-14T11:40:30.978Z,101323.09
2023-04-14T11:43:03.540Z,101323.88
2023-04-14T11:45:33.610Z,101322.31
2023-04-14T11:48:06.322Z,101323.16
2023-04-14T11:50:39.312Z,101323.16
2023-04-14T11:53:11.844Z,101319.50
2023-04-14T11:55:46.773Z,101319.13
2023-04-14T11:58:24.859Z,101311.00
2023-04-14T12:00:56.397Z,101316.66
2023-04-14T12:03:30.585Z,101301.34
2023-04-14T12:06:02.134Z,101296.88
2023-04-14T12:08:33.080Z,101290.03
2023-04-14T12:11:15.310Z,101290.88
2023-04-14T12:13:48.739Z,101288.03
2023-04-14T12:16:19.868Z,101299.34
2023-04-14T12:18:50.067Z,101288.41
2023-04-14T12:21:21.825Z,101290.88
2023-04-14T12:23:52.338Z,101285.56
2023-04-14T12:26:23.319Z,101283.94
2023-04-14T12:29:00.762Z,101281.50
2023-04-14T12:31:31.988Z,101280.69
2023-04-14T12:34:06.870Z,101272.56
2023-04-14T12:36:50.195Z,101279.06
2023-04-14T12:39:22.546Z,101269.75
2023-04-14T12:41:52.865Z,101272.56
2023-04-14T12:44:24.959Z,101272.94
2023-04-14T12:46:56.622Z,101264.84
2023-04-14T12:49:40.925Z,101276.16
2023-04-14T12:52:11.083Z,101272.03
2023-04-14T12:54:52.348Z,101261.94
2023-04-14T12:57:24.025Z,101256.22
2023-04-14T12:59:55.604Z,101258.25
2023-04-14T13:02:25.607Z,101250.09
2023-04-14T13:04:55.268Z,101256.97
2023-04-14T13:07:25.666Z,101261.00
2023-04-14T13:09:56.131Z,101261.34
2023-04-14T13:12:26.261Z,101247.22
2023-04-14T13:14:57.792Z,101254.06
2023-04-14T13:17:28.170Z,101253.63
2023-04-14T13:19:58.838Z,101262.13
2023-04-14T13:22:29.269Z,101246.34
2023-04-14T13:25:00.928Z,101242.22
2023-04-14T13:27:30.369Z,101244.25
2023-04-14T13:30:01.862Z,101240.63
2023-04-14T13:32:31.929Z,101238.16
2023-04-14T13:35:02.171Z,101242.16
2023-04-14T13:37:31.673Z,101247.38
2023-04-14T13:40:01.929Z,101243.75
2023-04-14T13:42:32.105Z,101230.34
2023-04-14T13:45:03.762Z,101238.03
2023-04-14T13:47:33.334Z,101237.56
2023-04-14T13:50:03.884Z,101239.59
2023-04-14T13:52:34.117Z,101233.50
2023-04-14T13:55:04.056Z,101233.03
2023-04-14T13:57:34.105Z,101234.22
2023-04-14T14:00:11.384Z,101230.91
2023-04-14T14:02:41.724Z,101227.66
2023-04-14T14:05:13.237Z,101230.84
2023-04-14T14:07:42.675Z,101219.94
2023-04-14T14:10:13.843Z,101218.28
2023-04-14T14:12:43.901Z,101216.66
2023-04-14T14:15:17.125Z,101227.16
2023-04-14T14:17:47.276Z,101226.69
2023-04-14T14:20:17.185Z,101227.03
2023-04-14T14:22:47.516Z,101225.44
2023-04-14T14:25:21.070Z,101207.22
2023-04-14T14:27:52.158Z,101216.06
2023-04-14T14:30:24.256Z,101208.78
2023-04-14T14:32:54.338Z,101203.13
2023-04-14T14:35:24.413Z,101210.78
2023-04-14T14:37:54.736Z,101209.16
2023-04-14T14:40:24.769Z,101202.22
2023-04-14T14:42:55.120Z,101196.97
2023-04-14T14:45:30.784Z,101200.63
2023-04-14T14:48:02.122Z,101200.16
2023-04-14T14:50:32.216Z,101200.50
2023-04-14T14:53:03.467Z,101200.09
2023-04-14T14:55:34.551Z,101192.81
2023-04-14T14:58:08.648Z,101195.19
2023-04-14T15:00:40.430Z,101189.91
2023-04-14T15:03:10.324Z,101194.72
2023-04-14T15:05:40.473Z,101189.09
2023-04-14T15:08:10.798Z,101189.81
2023-04-14T15:10:40.810Z,101188.22
2023-04-14T15:13:10.826Z,101183.75
2023-04-14T15:15:43.019Z,101179.28
2023-04-14T15:18:13.502Z,101176.81
2023-04-14T15:20:43.931Z,101181.66
2023-04-14T15:23:14.233Z,101182.03
2023-04-14T15:25:44.362Z,101175.09
2023-04-14T15:28:15.221Z,101177.13
2023-04-14T15:30:46.722Z,101167.41
2023-04-14T15:33:16.886Z,101177.41
2023-04-14T15:35:47.028Z,101170.94
2023-04-14T15:38:16.720Z,101172.50
2023-04-14T15:40:46.830Z,101165.59
2023-04-14T15:43:17.447Z,101165.16
2023-04-14T15:45:49.578Z,101167.16
2023-04-14T15:48:19.703Z,101174.34
2023-04-14T15:50:49.810Z,101171.88
2023-04-14T15:53:19.996Z,101173.41
2023-04-14T15:55:52.618Z,101176.22
2023-04-14T15:58:23.110Z,101174.16
2023-04-14T16:00:54.174Z,101173.34
2023-04-14T16:03:24.540Z,101174.91
2023-04-14T16:06:03.527Z,101176.91
2023-04-14T16:08:33.675Z,101173.63
2023-04-14T16:11:03.926Z,101184.09
2023-04-14T16:13:34.159Z,101175.19
2023-04-14T16:16:06.303Z,101182.81
2023-04-14T16:18:37.327Z,101184.00
2023-04-14T16:21:07.405Z,101190.03
2023-04-14T16:23:37.752Z,101194.84
2023-04-14T16:26:07.923Z,101187.94
2023-04-14T16:28:37.731Z,101191.59
2023-04-14T16:31:10.069Z,101191.13
2023-04-14T16:33:40.052Z,101193.13
2023-04-14T16:36:09.896Z,101203.97
2023-04-14T16:38:39.783Z,101203.97
2023-04-14T16:41:09.897Z,101204.31
2023-04-14T16:43:40.053Z,101211.97
2023-04-14T16:46:12.305Z,101207.50
2023-04-14T16:48:42.550Z,101214.34
2023-04-14T16:51:13.033Z,101218.34
2023-04-14T16:53:44.538Z,101221.88
2023-04-14T16:56:14.553Z,101223.06
2023-04-14T16:58:44.688Z,101219.44
2023-04-14T17:01:16.384Z,101222.63
2023-04-14T17:03:46.162Z,101216.53
2023-04-14T17:06:16.101Z,101222.53
2023-04-14T17:08:46.548Z,101222.09
2023-04-14T17:11:17.265Z,101220.44
2023-04-14T17:13:47.292Z,101227.25
2023-04-14T17:16:19.503Z,101219.19
2023-04-14T17:18:51.659Z,101223.19
2023-04-14T17:21:21.764Z,101225.53
2023-04-14T17:23:51.933Z,101228.75
2023-04-14T17:26:21.943Z,101222.63
2023-04-14T17:28:51.989Z,101224.63
2023-04-14T17:31:24.350Z,101223.81
2023-04-14T17:33:54.548Z,101229.78
2023-04-14T17:36:24.797Z,101231.34
2023-04-14T17:38:54.352Z,101235.34
2023-04-14T17:41:25.306Z,101234.53
2023-04-14T17:43:55.008Z,101239.72
2023-04-14T17:46:34.293Z,101238.91
2023-04-14T17:49:04.746Z,101229.13
2023-04-14T17:51:35.723Z,101218.22
2023-04-14T17:54:08.094Z,101228.69
2023-04-14T17:56:37.873Z,101230.22
2023-04-14T17:59:07.535Z,101227.78
2023-04-14T18:01:39.184Z,101226.13
2023-04-14T18:04:09.616Z,101230.13
2023-04-14T18:06:39.850Z,101226.84
2023-04-14T18:09:10.891Z,101231.69
2023-04-14T18:11:40.975Z,101237.69
2023-04-14T18:14:11.232Z,101240.84
2023-04-14T18:16:43.025Z,101238.03
2023-04-14T18:19:13.168Z,101242.41
2023-04-14T18:21:44.843Z,101240.78
2023-04-14T18:26:48.032Z,101240.31
2023-04-14T18:29:17.992Z,101237.06
2023-04-14T18:31:49.555Z,101237.06
2023-04-14T18:34:19.907Z,101248.66
2023-04-14T18:36:49.937Z,101248.19
2023-04-14T18:39:19.963Z,101250.59
2023-04-14T18:41:50.141Z,101252.56
2023-04-14T18:44:20.201Z,101240.84
2023-04-14T18:46:52.290Z,101252.09
2023-04-14T18:49:22.563Z,101249.66
2023-04-14T18:51:52.786Z,101246.03
2023-04-14T18:54:23.768Z,101250.03
2023-04-14T18:56:53.910Z,101246.75
2023-04-14T18:59:24.662Z,101241.47
2023-04-14T19:01:56.297Z,101242.28
2023-04-14T19:04:26.742Z,101239.00
2023-04-14T19:06:56.844Z,101241.03
2023-04-14T19:09:27.836Z,101246.19
2023-04-14T19:11:58.146Z,101245.34
2023-04-14T19:14:28.238Z,101251.34
2023-04-14T19:16:59.677Z,101249.38
2023-04-14T19:19:30.102Z,101244.91
2023-04-14T19:22:00.256Z,101245.25
2023-04-14T19:24:30.541Z,101243.63
2023-04-14T19:27:00.478Z,101236.72
2023-04-14T19:29:29.984Z,101233.91
2023-04-14T19:32:01.781Z,101244.34
2023-04-14T19:34:32.025Z,101241.88
2023-04-14T19:37:03.654Z,101247.88
2023-04-14T19:39:34.608Z,101237.00
2023-04-14T19:42:04.741Z,101240.97
2023-04-14T19:44:35.672Z,101247.78
2023-04-14T19:47:07.983Z,101244.13
2023-04-14T19:49:37.931Z,101245.69
2023-04-14T19:52:08.396Z,101246.84
2023-04-14T19:54:38.676Z,101247.22
2023-04-14T19:57:08.860Z,101254.84
2023-04-14T19:59:40.430Z,101247.59
2023-04-14T20:02:13.605Z,101249.56
2023-04-14T20:04:43.983Z,101247.13
2023-04-14T20:07:13.661Z,101237.00
2023-04-14T20:09:46.809Z,101235.38
2023-04-14T20:12:17.026Z,101229.28
2023-04-14T20:14:47.514Z,101231.28
2023-04-14T20:17:20.672Z,101233.25
2023-04-14T20:19:50.957Z,101232.81
2023-04-14T20:22:21.089Z,101219.91
2023-04-14T20:24:51.242Z,101230.34
2023-04-14T20:27:20.937Z,101219.47
2023-04-14T20:29:51.723Z,101208.53
2023-04-14T20:32:24.162Z,101208.53
2023-04-14T20:34:54.434Z,101220.16
2023-04-14T20:37:24.625Z,101216.88
2023-04-14T20:39:55.430Z,101212.44
2023-04-14T20:42:25.664Z,101212.78
2023-04-14T20:44:55.811Z,101211.16
2023-04-14T20:47:27.946Z,101215.97
2023-04-14T20:49:57.966Z,101204.25
2023-04-14T20:52:28.495Z,101206.22
2023-04-14T20:54:58.558Z,101205.44
2023-04-14T20:57:28.635Z,101205.78
2023-04-14T20:59:58.569Z,101200.50
2023-04-14T21:02:30.357Z,101209.31
2023-04-14T21:05:00.121Z,101204.84
2023-04-14T21:07:30.424Z,101205.22
2023-04-14T21:10:00.634Z,101200.78
2023-04-14T21:12:35.287Z,101199.13
2023-04-14T21:15:45.602Z,101202.31
2023-04-14T21:17:58.325Z,101201.00
2023-04-14T21:20:29.447Z,101198.56
2023-04-14T21:22:59.498Z,101196.94
2023-04-14T21:25:29.688Z,101198.09
2023-04-14T21:27:59.822Z,101191.19
2023-04-14T21:30:29.312Z,101181.47
2023-04-14T21:33:00.592Z,101195.56
2023-04-14T21:35:30.067Z,101184.63
2023-04-14T21:38:00.016Z,101182.19
2023-04-14T21:40:30.607Z,101184.19
2023-04-14T21:43:00.486Z,101168.50
2023-04-14T21:45:30.670Z,101181.72
2023-04-14T21:48:03.216Z,101175.63
2023-04-14T21:50:33.413Z,101174.81
2023-04-14T21:53:04.563Z,101171.53
2023-04-14T21:55:34.808Z,101165.09
2023-04-14T21:58:05.869Z,101159.81
2023-04-14T22:00:37.544Z,101161.81
2023-04-14T22:03:11.276Z,101150.94
2023-04-14T22:05:42.041Z,101156.91
2023-04-14T22:08:12.556Z,101147.66
2023-04-14T22:10:43.618Z,101131.94
2023-04-14T22:13:13.497Z,101133.13
2023-04-14T22:15:45.355Z,101135.13
2023-04-14T22:18:17.514Z,101129.84
2023-04-14T22:20:47.926Z,101127.41
2023-04-14T22:23:18.695Z,101116.94
2023-04-14T22:25:49.412Z,101120.13
2023-04-14T22:28:19.636Z,101113.19
2023-04-14T22:30:49.503Z,101118.81
2023-04-14T22:33:20.893Z,101118.00
2023-04-14T22:35:51.584Z,101106.28
2023-04-14T22:38:22.057Z,101113.91
2023-04-14T22:40:52.960Z,101102.19
2023-04-14T22:43:23.170Z,101100.53
2023-04-14T22:45:52.870Z,101091.69
2023-04-14T22:48:24.561Z,101094.81
2023-04-14T22:50:54.930Z,101088.41
2023-04-14T22:53:25.106Z,101092.38
2023-04-14T22:55:55.060Z,101081.47
2023-04-14T22:58:25.568Z,101092.72
2023-04-14T23:00:55.294Z,101093.09
2023-04-14T23:03:27.214Z,101082.19
2023-04-14T23:05:56.928Z,101078.56
2023-04-14T23:08:27.544Z,101076.13
2023-04-14T23:10:57.986Z,101077.28
2023-04-14T23:13:28.550Z,101083.75
2023-04-14T23:15:58.869Z,101076.47
2023-04-14T23:18:30.197Z,101074.00
2023-04-14T23:21:00.304Z,101079.16
2023-04-14T23:23:29.761Z,101079.16
2023-04-14T23:25:59.932Z,101066.63
2023-04-14T23:28:29.354Z,101070.28
2023-04-14T23:30:59.553Z,101070.63
2023-04-14T23:33:31.204Z,101075.44
2023-04-14T23:36:01.093Z,101073.00
2023-04-14T23:38:31.101Z,101071.34
2023-04-14T23:41:00.722Z,101067.72
2023-04-14T23:43:30.564Z,101068.88
2023-04-14T23:46:00.752Z,101067.25
2023-04-14T23:48:31.775Z,101063.63
2023-04-14T23:51:13.811Z,101064.00
2023-04-14T23:53:45.236Z,101060.72
2023-04-14T23:56:15.079Z,101060.72
2023-04-14T23:58:44.974Z,101047.84
